createdAt,value
2018-02-09T00:00:03.605Z,0
2018-02-09T00:00:35.593Z,0
2018-02-09T00:01:07.603Z,0
2018-02-09T00:01:39.756Z,0
2018-02-09T00:02:11.741Z,0
2018-02-09T00:02:43.746Z,0
2018-02-09T00:03:15.816Z,0
2018-02-09T00:03:47.942Z,0
2018-02-09T00:04:19.954Z,0
2018-02-09T00:04:52.052Z,0
2018-02-09T00:05:24.090Z,0
2018-02-09T00:05:56.133Z,0
2018-02-09T00:06:28.117Z,0
2018-02-09T00:07:00.153Z,0
2018-02-09T00:07:32.145Z,0
2018-02-09T00:08:04.211Z,0
2018-02-09T00:08:36.246Z,0
2018-02-09T00:09:08.276Z,0
2018-02-09T00:09:40.292Z,0
2018-02-09T00:10:12.304Z,0
2018-02-09T00:10:44.335Z,0
2018-02-09T00:11:16.391Z,0
2018-02-09T00:11:48.390Z,0
2018-02-09T00:12:20.444Z,0
2018-02-09T00:12:52.461Z,0
2018-02-09T00:13:24.493Z,0
2018-02-09T00:13:56.490Z,0
2018-02-09T00:14:28.518Z,0
2018-02-09T00:15:00.524Z,0
2018-02-09T00:15:32.563Z,0
2018-02-09T00:16:04.609Z,0
2018-02-09T00:16:36.666Z,0
2018-02-09T00:17:08.662Z,0
2018-02-09T00:17:40.682Z,0
2018-02-09T00:18:12.760Z,0
2018-02-09T00:18:44.832Z,0
2018-02-09T00:19:16.849Z,0
2018-02-09T00:19:48.890Z,0
2018-02-09T00:20:20.938Z,0
2018-02-09T00:20:52.951Z,0
2018-02-09T00:21:24.958Z,0
2018-02-09T00:21:57.010Z,0
2018-02-09T00:22:29.176Z,0
2018-02-09T00:23:01.239Z,0
2018-02-09T00:23:33.255Z,0
2018-02-09T00:24:05.804Z,0
2018-02-09T00:24:37.773Z,0
2018-02-09T00:25:09.787Z,0
2018-02-09T00:25:41.904Z,0
2018-02-09T00:26:13.964Z,0
2018-02-09T00:26:46.053Z,0
2018-02-09T00:27:18.043Z,0
2018-02-09T00:27:51.201Z,0
2018-02-09T00:28:23.243Z,0
2018-02-09T00:28:56.023Z,0
2018-02-09T00:29:28.146Z,0
2018-02-09T00:30:00.164Z,0
2018-02-09T00:30:32.176Z,0
2018-02-09T00:31:04.163Z,0
2018-02-09T00:31:36.175Z,0
2018-02-09T00:32:08.201Z,0
2018-02-09T00:32:40.203Z,0
2018-02-09T00:33:12.243Z,0
2018-02-09T00:33:44.245Z,0
2018-02-09T00:34:16.266Z,0
2018-02-09T00:34:48.255Z,0
2018-02-09T00:35:20.298Z,0
2018-02-09T00:35:52.332Z,0
2018-02-09T00:36:25.145Z,0
2018-02-09T00:36:57.755Z,0
2018-02-09T00:37:29.737Z,0
2018-02-09T00:38:01.757Z,0
2018-02-09T00:38:33.792Z,0
2018-02-09T00:39:05.827Z,0
2018-02-09T00:39:37.808Z,0
2018-02-09T00:40:09.807Z,0
2018-02-09T00:40:41.893Z,0
2018-02-09T00:41:14.839Z,0
2018-02-09T00:41:46.873Z,0
2018-02-09T00:42:18.983Z,0
2018-02-09T00:42:50.972Z,0
2018-02-09T00:43:23.612Z,0
2018-02-09T00:43:55.639Z,0
2018-02-09T00:44:28.323Z,0
2018-02-09T00:45:00.346Z,0
2018-02-09T00:45:32.369Z,0
2018-02-09T00:46:04.435Z,0
2018-02-09T00:46:36.430Z,0
2018-02-09T00:47:08.445Z,0
2018-02-09T00:47:40.486Z,0
2018-02-09T00:48:12.535Z,0
2018-02-09T00:48:45.159Z,0
2018-02-09T00:49:18.159Z,0
2018-02-09T00:49:50.776Z,0
2018-02-09T00:50:22.797Z,0
2018-02-09T00:50:55.333Z,0
2018-02-09T00:51:27.352Z,0
2018-02-09T00:51:59.360Z,0
2018-02-09T00:52:31.400Z,0
2018-02-09T00:53:03.408Z,0
2018-02-09T00:53:35.446Z,0
2018-02-09T00:54:07.470Z,0
2018-02-09T00:54:41.036Z,0
2018-02-09T00:55:13.066Z,0
2018-02-09T00:55:46.042Z,0
2018-02-09T00:56:18.026Z,0
2018-02-09T00:56:50.056Z,0
2018-02-09T00:57:22.088Z,0
2018-02-09T00:57:54.109Z,0
2018-02-09T00:58:26.125Z,0
2018-02-09T00:58:58.159Z,0
2018-02-09T00:59:30.169Z,0
2018-02-09T01:00:02.191Z,0
2018-02-09T01:00:34.214Z,0
2018-02-09T01:01:06.173Z,0
2018-02-09T01:01:38.242Z,0
2018-02-09T01:02:10.275Z,0
2018-02-09T01:02:42.300Z,0
2018-02-09T01:03:14.300Z,0
2018-02-09T01:03:46.310Z,0
2018-02-09T01:04:18.340Z,0
2018-02-09T01:04:50.809Z,0
2018-02-09T01:05:22.840Z,0
2018-02-09T01:05:54.858Z,0
2018-02-09T01:06:26.980Z,0
2018-02-09T01:06:58.953Z,0
2018-02-09T01:07:31.001Z,0
2018-02-09T01:08:03.733Z,0
2018-02-09T01:08:35.730Z,0
2018-02-09T01:09:08.674Z,0
2018-02-09T01:09:40.679Z,0
2018-02-09T01:10:12.673Z,0
2018-02-09T01:10:44.673Z,0
2018-02-09T01:11:16.704Z,0
2018-02-09T01:11:48.808Z,0
2018-02-09T01:12:20.845Z,0
2018-02-09T01:12:52.883Z,0
2018-02-09T01:13:24.893Z,0
2018-02-09T01:13:56.923Z,0
2018-02-09T01:14:28.927Z,0
2018-02-09T01:15:00.949Z,0
2018-02-09T01:15:32.977Z,0
2018-02-09T01:16:05.004Z,0
2018-02-09T01:16:37.030Z,0
2018-02-09T01:17:09.111Z,0
2018-02-09T01:17:41.754Z,0
2018-02-09T01:18:13.875Z,0
2018-02-09T01:18:46.868Z,0
2018-02-09T01:19:18.998Z,0
2018-02-09T01:19:52.556Z,0
2018-02-09T01:20:25.940Z,0
2018-02-09T01:20:57.950Z,0
2018-02-09T01:21:30.778Z,0
2018-02-09T01:22:02.807Z,0
2018-02-09T01:22:34.808Z,0
2018-02-09T01:23:06.849Z,0
2018-02-09T01:23:38.883Z,0
2018-02-09T01:24:11.018Z,0
2018-02-09T01:24:43.055Z,0
2018-02-09T01:25:15.017Z,0
2018-02-09T01:25:47.027Z,0
2018-02-09T01:26:19.013Z,0
2018-02-09T01:26:51.036Z,0
2018-02-09T01:27:23.205Z,0
2018-02-09T01:27:55.245Z,0
2018-02-09T01:28:27.281Z,0
2018-02-09T01:28:59.264Z,0
2018-02-09T01:29:31.858Z,0
2018-02-09T01:30:04.705Z,0
2018-02-09T01:30:37.975Z,0
2018-02-09T01:31:10.006Z,0
2018-02-09T01:31:41.999Z,0
2018-02-09T01:32:14.031Z,0
2018-02-09T01:32:46.034Z,0
2018-02-09T01:33:18.182Z,0
2018-02-09T01:33:50.221Z,0
2018-02-09T01:34:22.286Z,0
2018-02-09T01:34:54.318Z,0
2018-02-09T01:35:26.344Z,0
2018-02-09T01:35:58.409Z,0
2018-02-09T01:36:30.401Z,0
2018-02-09T01:37:02.442Z,0
2018-02-09T01:37:38.297Z,0
2018-02-09T01:38:10.340Z,0
2018-02-09T01:38:42.340Z,0
2018-02-09T01:39:15.207Z,0
2018-02-09T01:39:47.965Z,0
2018-02-09T01:40:20.459Z,0
2018-02-09T01:40:52.522Z,0
2018-02-09T01:41:24.559Z,0
2018-02-09T01:41:56.624Z,0
2018-02-09T01:42:29.196Z,0
2018-02-09T01:43:01.351Z,0
2018-02-09T01:43:33.386Z,0
2018-02-09T01:44:05.372Z,0
2018-02-09T01:44:37.385Z,0
2018-02-09T01:45:09.414Z,0
2018-02-09T01:45:42.237Z,0
2018-02-09T01:46:14.222Z,0
2018-02-09T01:46:46.981Z,0
2018-02-09T01:47:18.974Z,0
2018-02-09T01:47:51.660Z,0
2018-02-09T01:48:23.690Z,0
2018-02-09T01:48:55.709Z,0
2018-02-09T01:49:27.697Z,0
2018-02-09T01:50:00.341Z,0
2018-02-09T01:50:32.331Z,0
2018-02-09T01:51:04.892Z,0
2018-02-09T01:51:36.967Z,0
2018-02-09T01:52:09.863Z,0
2018-02-09T01:52:41.927Z,0
2018-02-09T01:53:14.728Z,0
2018-02-09T01:53:46.777Z,0
2018-02-09T01:54:18.831Z,0
2018-02-09T01:54:50.833Z,0
2018-02-09T01:55:22.927Z,0
2018-02-09T01:55:54.968Z,0
2018-02-09T01:56:27.002Z,0
2018-02-09T01:56:59.009Z,0
2018-02-09T01:57:31.039Z,0
2018-02-09T01:58:03.049Z,0
2018-02-09T01:58:35.078Z,0
2018-02-09T01:59:07.102Z,0
2018-02-09T01:59:39.155Z,0
2018-02-09T02:00:11.809Z,0
2018-02-09T02:00:43.814Z,0
2018-02-09T02:01:16.702Z,0
2018-02-09T02:01:48.796Z,0
2018-02-09T02:02:20.810Z,0
2018-02-09T02:02:52.836Z,0
2018-02-09T02:03:24.879Z,0
2018-02-09T02:03:56.925Z,0
2018-02-09T02:04:30.984Z,0
2018-02-09T02:05:03.699Z,0
2018-02-09T02:05:35.698Z,0
2018-02-09T02:06:07.777Z,0
2018-02-09T02:06:39.835Z,0
2018-02-09T02:07:12.787Z,0
2018-02-09T02:07:44.852Z,0
2018-02-09T02:08:16.868Z,0
2018-02-09T02:08:48.927Z,0
2018-02-09T02:09:20.957Z,0
2018-02-09T02:09:52.959Z,0
2018-02-09T02:10:25.578Z,0
2018-02-09T02:10:57.600Z,0
2018-02-09T02:11:29.657Z,0
2018-02-09T02:12:02.246Z,0
2018-02-09T02:12:35.172Z,0
2018-02-09T02:13:07.197Z,0
2018-02-09T02:13:40.086Z,0
2018-02-09T02:14:12.153Z,0
2018-02-09T02:14:44.216Z,0
2018-02-09T02:15:16.221Z,0
2018-02-09T02:15:48.975Z,0
2018-02-09T02:16:20.984Z,0
2018-02-09T02:16:53.013Z,0
2018-02-09T02:17:25.147Z,0
2018-02-09T02:17:58.383Z,0
2018-02-09T02:18:30.513Z,0
2018-02-09T02:19:02.559Z,0
2018-02-09T02:19:34.568Z,0
2018-02-09T02:20:06.538Z,0
2018-02-09T02:20:38.546Z,0
2018-02-09T02:21:10.594Z,0
2018-02-09T02:21:42.649Z,0
2018-02-09T02:22:14.651Z,0
2018-02-09T02:22:46.709Z,0
2018-02-09T02:23:18.786Z,0
2018-02-09T02:23:50.771Z,0
2018-02-09T02:24:22.811Z,0
2018-02-09T02:24:54.881Z,0
2018-02-09T02:25:26.941Z,0
2018-02-09T02:26:00.586Z,0
2018-02-09T02:26:33.379Z,0
2018-02-09T02:27:05.409Z,0
2018-02-09T02:27:37.477Z,0
2018-02-09T02:28:09.972Z,0
2018-02-09T02:28:41.962Z,0
2018-02-09T02:29:13.978Z,0
2018-02-09T02:29:45.996Z,0
2018-02-09T02:30:18.004Z,0
2018-02-09T02:30:49.992Z,0
2018-02-09T02:31:21.990Z,0
2018-02-09T02:31:54.009Z,0
2018-02-09T02:32:26.035Z,0
2018-02-09T02:32:58.074Z,0
2018-02-09T02:33:30.084Z,0
2018-02-09T02:34:02.081Z,0
2018-02-09T02:34:34.081Z,0
2018-02-09T02:35:06.831Z,0
2018-02-09T02:35:39.824Z,0
2018-02-09T02:36:12.403Z,0
2018-02-09T02:36:44.401Z,0
2018-02-09T02:37:17.007Z,0
2018-02-09T02:37:49.070Z,0
2018-02-09T02:38:21.116Z,0
2018-02-09T02:38:53.786Z,0
2018-02-09T02:39:26.714Z,0
2018-02-09T02:39:58.900Z,0
2018-02-09T02:40:31.029Z,0
2018-02-09T02:41:03.046Z,0
2018-02-09T02:41:35.121Z,0
2018-02-09T02:42:07.135Z,0
2018-02-09T02:42:39.265Z,0
2018-02-09T02:43:11.231Z,0
2018-02-09T02:43:43.267Z,0
2018-02-09T02:44:15.370Z,0
2018-02-09T02:44:47.405Z,0
2018-02-09T02:45:20.200Z,0
2018-02-09T02:45:52.255Z,0
2018-02-09T02:46:24.274Z,0
2018-02-09T02:46:56.406Z,0
2018-02-09T02:47:29.376Z,0
2018-02-09T02:48:01.468Z,0
2018-02-09T02:48:33.487Z,0
2018-02-09T02:49:06.327Z,0
2018-02-09T02:49:39.238Z,0
2018-02-09T02:50:11.351Z,0
2018-02-09T02:50:44.053Z,0
2018-02-09T02:51:17.001Z,0
2018-02-09T02:51:49.603Z,0
2018-02-09T02:52:21.600Z,0
2018-02-09T02:52:53.669Z,0
2018-02-09T02:53:25.704Z,0
2018-02-09T02:53:57.766Z,0
2018-02-09T02:54:29.770Z,0
2018-02-09T02:55:01.843Z,0
2018-02-09T02:55:33.848Z,0
2018-02-09T02:56:05.878Z,0
2018-02-09T02:56:37.950Z,0
2018-02-09T02:57:09.935Z,0
2018-02-09T02:57:41.969Z,0
2018-02-09T02:58:14.018Z,0
2018-02-09T02:58:46.041Z,0
2018-02-09T02:59:18.023Z,0
2018-02-09T02:59:50.035Z,0
2018-02-09T03:00:22.048Z,0
2018-02-09T03:00:54.997Z,0
2018-02-09T03:01:26.998Z,0
2018-02-09T03:01:59.637Z,0
2018-02-09T03:02:31.632Z,0
2018-02-09T03:03:03.610Z,0
2018-02-09T03:03:35.706Z,0
2018-02-09T03:04:07.696Z,0
2018-02-09T03:04:39.744Z,0
2018-02-09T03:05:11.797Z,0
2018-02-09T03:05:43.859Z,0
2018-02-09T03:06:15.993Z,0
2018-02-09T03:06:48.759Z,0
2018-02-09T03:07:20.737Z,0
2018-02-09T03:07:52.794Z,0
2018-02-09T03:08:25.611Z,0
2018-02-09T03:08:57.654Z,0
2018-02-09T03:09:30.522Z,0
2018-02-09T03:10:02.578Z,0
2018-02-09T03:10:34.585Z,0
2018-02-09T03:11:06.632Z,0
2018-02-09T03:11:38.688Z,0
2018-02-09T03:12:10.703Z,0
2018-02-09T03:12:44.032Z,0
2018-02-09T03:13:16.070Z,0
2018-02-09T03:13:48.046Z,0
2018-02-09T03:14:20.069Z,0
2018-02-09T03:14:52.095Z,0
2018-02-09T03:15:24.154Z,0
2018-02-09T03:15:56.190Z,0
2018-02-09T03:16:28.831Z,0
2018-02-09T03:17:00.901Z,0
2018-02-09T03:17:32.908Z,0
2018-02-09T03:18:04.933Z,0
2018-02-09T03:18:36.950Z,0
2018-02-09T03:19:08.961Z,0
2018-02-09T03:19:41.749Z,0
2018-02-09T03:20:14.399Z,0
2018-02-09T03:20:46.474Z,0
2018-02-09T03:21:18.502Z,0
2018-02-09T03:21:50.531Z,0
2018-02-09T03:22:22.539Z,0
2018-02-09T03:22:54.562Z,0
2018-02-09T03:23:26.574Z,0
2018-02-09T03:23:58.570Z,0
2018-02-09T03:24:30.552Z,0
2018-02-09T03:25:02.540Z,0
2018-02-09T03:25:34.680Z,0
2018-02-09T03:26:07.926Z,0
2018-02-09T03:26:39.989Z,0
2018-02-09T03:27:12.074Z,0
2018-02-09T03:27:44.114Z,0
2018-02-09T03:28:16.116Z,0
2018-02-09T03:28:48.816Z,0
2018-02-09T03:29:20.879Z,0
2018-02-09T03:29:53.823Z,0
2018-02-09T03:30:25.850Z,0
2018-02-09T03:30:58.538Z,0
2018-02-09T03:31:30.566Z,0
2018-02-09T03:32:02.584Z,0
2018-02-09T03:32:34.617Z,0
2018-02-09T03:33:08.132Z,0
2018-02-09T03:33:41.009Z,0
2018-02-09T03:34:13.028Z,0
2018-02-09T03:34:45.025Z,0
2018-02-09T03:35:17.053Z,0
2018-02-09T03:35:49.830Z,0
2018-02-09T03:36:21.857Z,0
2018-02-09T03:36:53.865Z,0
2018-02-09T03:37:25.851Z,0
2018-02-09T03:37:57.859Z,0
2018-02-09T03:38:29.874Z,0
2018-02-09T03:39:03.633Z,0
2018-02-09T03:39:36.417Z,0
2018-02-09T03:40:08.554Z,0
2018-02-09T03:40:43.077Z,0
2018-02-09T03:41:15.197Z,0
2018-02-09T03:41:48.634Z,0
2018-02-09T03:42:22.637Z,0
2018-02-09T03:42:54.680Z,0
2018-02-09T03:43:26.740Z,0
2018-02-09T03:43:58.767Z,0
2018-02-09T03:44:31.335Z,0
2018-02-09T03:45:03.349Z,0
2018-02-09T03:45:35.392Z,0
2018-02-09T03:46:07.397Z,0
2018-02-09T03:46:39.441Z,0
2018-02-09T03:47:11.464Z,0
2018-02-09T03:47:43.504Z,0
2018-02-09T03:48:15.678Z,0
2018-02-09T03:48:47.757Z,0
2018-02-09T03:49:19.777Z,0
2018-02-09T03:49:52.513Z,0
2018-02-09T03:50:25.397Z,0
2018-02-09T03:50:57.606Z,0
2018-02-09T03:51:29.659Z,0
2018-02-09T03:52:02.315Z,0
2018-02-09T03:52:34.831Z,0
2018-02-09T03:53:06.812Z,0
2018-02-09T03:53:38.840Z,0
2018-02-09T03:54:10.855Z,0
2018-02-09T03:54:42.989Z,0
2018-02-09T03:55:14.959Z,0
2018-02-09T03:55:47.049Z,0
2018-02-09T03:56:19.066Z,0
2018-02-09T03:56:51.124Z,0
2018-02-09T03:57:23.100Z,0
2018-02-09T03:57:55.114Z,0
2018-02-09T03:58:27.104Z,0
2018-02-09T03:58:59.124Z,0
2018-02-09T03:59:32.640Z,0
2018-02-09T04:00:05.138Z,0
2018-02-09T04:00:37.140Z,0
2018-02-09T04:01:10.065Z,0
2018-02-09T04:01:43.048Z,0
2018-02-09T04:02:15.089Z,0
2018-02-09T04:02:47.736Z,0
2018-02-09T04:03:19.735Z,0
2018-02-09T04:03:51.780Z,0
2018-02-09T04:04:23.768Z,0
2018-02-09T04:04:55.813Z,0
2018-02-09T04:05:27.803Z,0
2018-02-09T04:05:59.836Z,0
2018-02-09T04:06:31.847Z,0
2018-02-09T04:07:03.885Z,0
2018-02-09T04:07:35.912Z,0
2018-02-09T04:08:07.942Z,0
2018-02-09T04:08:39.943Z,0
2018-02-09T04:09:12.531Z,0
2018-02-09T04:09:44.528Z,0
2018-02-09T04:10:17.031Z,0
2018-02-09T04:10:49.036Z,0
2018-02-09T04:11:21.020Z,0
2018-02-09T04:11:53.949Z,0
2018-02-09T04:12:25.996Z,0
2018-02-09T04:12:58.025Z,0
2018-02-09T04:13:30.541Z,0
2018-02-09T04:14:02.607Z,0
2018-02-09T04:14:34.639Z,0
2018-02-09T04:15:06.669Z,0
2018-02-09T04:15:38.668Z,0
2018-02-09T04:16:10.728Z,0
2018-02-09T04:16:42.735Z,0
2018-02-09T04:17:14.769Z,0
2018-02-09T04:17:46.870Z,0
2018-02-09T04:18:18.886Z,0
2018-02-09T04:18:50.896Z,0
2018-02-09T04:19:24.147Z,0
2018-02-09T04:19:56.841Z,0
2018-02-09T04:20:28.867Z,0
2018-02-09T04:21:01.533Z,0
2018-02-09T04:21:33.559Z,0
2018-02-09T04:22:05.620Z,0
2018-02-09T04:22:37.624Z,0
2018-02-09T04:23:09.641Z,0
2018-02-09T04:23:42.440Z,0
2018-02-09T04:24:14.439Z,0
2018-02-09T04:24:46.468Z,0
2018-02-09T04:25:18.508Z,0
2018-02-09T04:25:50.653Z,0
2018-02-09T04:26:22.662Z,0
2018-02-09T04:26:54.705Z,0
2018-02-09T04:27:26.688Z,0
2018-02-09T04:27:58.732Z,0
2018-02-09T04:28:31.656Z,0
2018-02-09T04:29:03.664Z,0
2018-02-09T04:29:35.676Z,0
2018-02-09T04:30:07.744Z,0
2018-02-09T04:30:39.762Z,0
2018-02-09T04:31:12.656Z,0
2018-02-09T04:31:45.458Z,0
2018-02-09T04:32:17.507Z,0
2018-02-09T04:32:49.496Z,0
2018-02-09T04:33:21.537Z,0
2018-02-09T04:33:54.282Z,0
2018-02-09T04:34:26.284Z,0
2018-02-09T04:34:58.327Z,0
2018-02-09T04:35:30.409Z,0
2018-02-09T04:36:02.371Z,0
2018-02-09T04:36:34.419Z,0
2018-02-09T04:37:06.447Z,0
2018-02-09T04:37:38.430Z,0
2018-02-09T04:38:10.465Z,0
2018-02-09T04:38:42.530Z,0
2018-02-09T04:39:14.690Z,0
2018-02-09T04:39:46.675Z,0
2018-02-09T04:40:18.692Z,0
2018-02-09T04:40:51.161Z,0
2018-02-09T04:41:23.883Z,0
2018-02-09T04:41:55.879Z,0
2018-02-09T04:42:28.577Z,0
2018-02-09T04:43:01.365Z,0
2018-02-09T04:43:33.951Z,0
2018-02-09T04:44:05.973Z,0
2018-02-09T04:44:37.937Z,0
2018-02-09T04:45:11.375Z,0
2018-02-09T04:45:43.370Z,0
2018-02-09T04:46:15.419Z,0
2018-02-09T04:46:48.058Z,0
2018-02-09T04:47:20.092Z,0
2018-02-09T04:47:52.149Z,0
2018-02-09T04:48:24.158Z,0
2018-02-09T04:48:56.157Z,0
2018-02-09T04:49:28.197Z,0
2018-02-09T04:50:00.187Z,0
2018-02-09T04:50:32.964Z,0
2018-02-09T04:51:06.071Z,0
2018-02-09T04:51:38.077Z,0
2018-02-09T04:52:10.109Z,0
2018-02-09T04:52:43.169Z,0
2018-02-09T04:53:15.170Z,0
2018-02-09T04:53:47.204Z,0
2018-02-09T04:54:19.894Z,0
2018-02-09T04:54:53.684Z,0
2018-02-09T04:55:25.693Z,0
2018-02-09T04:55:57.737Z,0
2018-02-09T04:56:29.767Z,0
2018-02-09T04:57:01.833Z,0
2018-02-09T04:57:33.823Z,0
2018-02-09T04:58:06.599Z,0
2018-02-09T04:58:39.181Z,0
2018-02-09T04:59:11.182Z,0
2018-02-09T04:59:43.179Z,0
2018-02-09T05:00:15.196Z,0
2018-02-09T05:00:47.238Z,0
2018-02-09T05:01:19.950Z,0
2018-02-09T05:01:51.966Z,0
2018-02-09T05:02:24.021Z,0
2018-02-09T05:02:56.869Z,0
2018-02-09T05:03:29.469Z,0
2018-02-09T05:04:01.478Z,0
2018-02-09T05:04:33.463Z,0
2018-02-09T05:05:05.512Z,0
2018-02-09T05:05:37.534Z,0
2018-02-09T05:06:09.576Z,0
2018-02-09T05:06:41.600Z,0
2018-02-09T05:07:14.566Z,0
2018-02-09T05:07:46.595Z,0
2018-02-09T05:08:18.577Z,0
2018-02-09T05:08:50.596Z,0
2018-02-09T05:09:23.490Z,0
2018-02-09T05:09:55.511Z,0
2018-02-09T05:10:27.539Z,0
2018-02-09T05:10:59.524Z,0
2018-02-09T05:11:32.563Z,0
2018-02-09T05:12:04.591Z,0
2018-02-09T05:12:37.458Z,0
2018-02-09T05:13:09.432Z,0
2018-02-09T05:13:42.084Z,0
2018-02-09T05:14:14.080Z,0
2018-02-09T05:14:46.114Z,0
2018-02-09T05:15:18.995Z,0
2018-02-09T05:15:51.590Z,0
2018-02-09T05:16:23.649Z,0
2018-02-09T05:16:55.699Z,0
2018-02-09T05:17:27.681Z,0
2018-02-09T05:17:59.722Z,0
2018-02-09T05:18:31.839Z,0
2018-02-09T05:19:03.883Z,0
2018-02-09T05:19:35.893Z,0
2018-02-09T05:20:07.923Z,0
2018-02-09T05:20:39.916Z,0
2018-02-09T05:21:17.687Z,0
2018-02-09T05:22:00.200Z,0
2018-02-09T05:23:07.246Z,0
2018-02-09T05:23:48.246Z,0
2018-02-09T05:25:08.248Z,0
2018-02-09T05:26:12.275Z,0
2018-02-09T05:27:12.747Z,0
2018-02-09T05:27:58.235Z,0
2018-02-09T05:28:55.788Z,0
2018-02-09T05:29:37.247Z,0
2018-02-09T05:30:16.523Z,0
2018-02-09T05:30:59.248Z,0
2018-02-09T05:31:35.338Z,0
2018-02-09T05:32:07.350Z,0
2018-02-09T05:32:39.375Z,0
2018-02-09T05:33:12.342Z,0
2018-02-09T05:33:44.339Z,0
2018-02-09T05:34:16.392Z,0
2018-02-09T05:34:48.405Z,0
2018-02-09T05:35:20.419Z,0
2018-02-09T05:35:52.412Z,0
2018-02-09T05:36:24.443Z,0
2018-02-09T05:36:56.535Z,0
2018-02-09T05:37:28.496Z,0
2018-02-09T05:38:00.517Z,0
2018-02-09T05:38:32.576Z,0
2018-02-09T05:39:04.549Z,0
2018-02-09T05:39:36.521Z,0
2018-02-09T05:40:08.516Z,0
2018-02-09T05:40:40.552Z,0
2018-02-09T05:41:12.567Z,0
2018-02-09T05:41:44.588Z,0
2018-02-09T05:42:16.638Z,0
2018-02-09T05:42:48.662Z,0
2018-02-09T05:43:20.715Z,0
2018-02-09T05:43:52.716Z,0
2018-02-09T05:44:24.777Z,0
2018-02-09T05:44:56.896Z,0
2018-02-09T05:45:29.009Z,0
2018-02-09T05:46:01.020Z,0
2018-02-09T05:46:33.044Z,0
2018-02-09T05:47:05.064Z,0
2018-02-09T05:47:37.079Z,0
2018-02-09T05:48:09.056Z,0
2018-02-09T05:48:41.193Z,0
2018-02-09T05:49:13.220Z,0
2018-02-09T05:49:45.207Z,0
2018-02-09T05:50:17.214Z,0
2018-02-09T05:50:49.212Z,0
2018-02-09T05:51:21.247Z,0
2018-02-09T05:51:53.354Z,0
2018-02-09T05:52:25.355Z,0
2018-02-09T05:52:57.369Z,0
2018-02-09T05:53:29.381Z,0
2018-02-09T05:54:01.435Z,0
2018-02-09T05:54:33.463Z,0
2018-02-09T05:55:05.484Z,0
2018-02-09T05:55:37.449Z,0
2018-02-09T05:56:09.420Z,0
2018-02-09T05:56:41.445Z,0
2018-02-09T05:57:13.438Z,0
2018-02-09T05:57:45.444Z,0
2018-02-09T05:58:17.463Z,0
2018-02-09T05:58:49.482Z,0
2018-02-09T05:59:21.498Z,0
2018-02-09T05:59:53.614Z,0
2018-02-09T06:00:25.621Z,0
2018-02-09T06:00:57.587Z,0
2018-02-09T06:01:29.665Z,0
2018-02-09T06:02:01.724Z,0
2018-02-09T06:02:33.770Z,0
2018-02-09T06:03:05.766Z,0
2018-02-09T06:03:37.767Z,0
2018-02-09T06:04:09.785Z,0
2018-02-09T06:04:41.829Z,0
2018-02-09T06:05:13.825Z,0
2018-02-09T06:05:45.819Z,0
2018-02-09T06:06:17.875Z,0
2018-02-09T06:06:49.880Z,0
2018-02-09T06:07:21.886Z,0
2018-02-09T06:07:53.920Z,0
2018-02-09T06:08:26.047Z,0
2018-02-09T06:08:58.068Z,0
2018-02-09T06:09:30.087Z,0
2018-02-09T06:10:02.126Z,0
2018-02-09T06:10:34.139Z,0
2018-02-09T06:11:06.244Z,0
2018-02-09T06:11:38.289Z,0
2018-02-09T06:12:10.339Z,0
2018-02-09T06:12:42.327Z,0
2018-02-09T06:13:14.303Z,0
2018-02-09T06:13:46.350Z,0
2018-02-09T06:14:18.340Z,0
2018-02-09T06:14:50.888Z,0
2018-02-09T06:15:22.988Z,0
2018-02-09T06:15:54.993Z,0
2018-02-09T06:16:27.077Z,0
2018-02-09T06:16:59.139Z,0
2018-02-09T06:17:31.170Z,0
2018-02-09T06:18:03.112Z,0
2018-02-09T06:18:35.206Z,0
2018-02-09T06:19:07.169Z,0
2018-02-09T06:19:39.198Z,0
2018-02-09T06:20:11.297Z,0
2018-02-09T06:20:43.337Z,0
2018-02-09T06:21:15.307Z,0
2018-02-09T06:21:47.375Z,0
2018-02-09T06:22:19.440Z,0
2018-02-09T06:22:51.490Z,0
2018-02-09T06:23:23.527Z,0
2018-02-09T06:23:55.525Z,0
2018-02-09T06:24:27.551Z,0
2018-02-09T06:24:59.602Z,0
2018-02-09T06:25:31.685Z,4
2018-02-09T06:26:03.799Z,4
2018-02-09T06:26:35.800Z,4
2018-02-09T06:27:07.803Z,4
2018-02-09T06:27:39.832Z,0
2018-02-09T06:28:11.798Z,0
2018-02-09T06:28:43.851Z,0
2018-02-09T06:29:15.902Z,4
2018-02-09T06:29:47.917Z,4
2018-02-09T06:30:19.984Z,4
2018-02-09T06:30:52.042Z,4
2018-02-09T06:31:24.145Z,0
2018-02-09T06:31:56.196Z,4
2018-02-09T06:32:28.236Z,4
2018-02-09T06:33:00.262Z,4
2018-02-09T06:33:32.280Z,4
2018-02-09T06:34:04.273Z,4
2018-02-09T06:34:36.486Z,8
2018-02-09T06:35:08.643Z,4
2018-02-09T06:35:40.626Z,8
2018-02-09T06:36:12.636Z,8
2018-02-09T06:36:44.662Z,8
2018-02-09T06:37:16.641Z,8
2018-02-09T06:37:48.624Z,8
2018-02-09T06:38:20.677Z,12
2018-02-09T06:38:52.672Z,8
2018-02-09T06:39:24.714Z,8
2018-02-09T06:39:56.726Z,12
2018-02-09T06:40:28.755Z,12
2018-02-09T06:41:00.752Z,12
2018-02-09T06:41:32.824Z,12
2018-02-09T06:42:04.828Z,16
2018-02-09T06:42:36.863Z,16
2018-02-09T06:43:08.842Z,16
2018-02-09T06:43:40.842Z,20
2018-02-09T06:44:12.832Z,20
2018-02-09T06:44:44.821Z,24
2018-02-09T06:45:16.838Z,24
2018-02-09T06:45:48.957Z,24
2018-02-09T06:46:21.012Z,28
2018-02-09T06:46:53.047Z,28
2018-02-09T06:47:26.550Z,28
2018-02-09T06:47:59.794Z,32
2018-02-09T06:48:32.424Z,32
2018-02-09T06:49:04.455Z,36
2018-02-09T06:49:36.477Z,36
2018-02-09T06:50:08.511Z,40
2018-02-09T06:50:41.319Z,44
2018-02-09T06:51:13.315Z,44
2018-02-09T06:51:45.385Z,44
2018-02-09T06:52:17.418Z,48
2018-02-09T06:52:50.201Z,48
2018-02-09T06:53:22.172Z,52
2018-02-09T06:53:54.225Z,52
2018-02-09T06:54:26.312Z,56
2018-02-09T06:54:58.308Z,60
2018-02-09T06:55:30.321Z,64
2018-02-09T06:56:02.463Z,64
2018-02-09T06:56:34.436Z,68
2018-02-09T06:57:06.484Z,72
2018-02-09T06:57:38.479Z,72
2018-02-09T06:58:10.594Z,76
2018-02-09T06:58:42.643Z,80
2018-02-09T06:59:14.659Z,80
2018-02-09T06:59:46.787Z,88
2018-02-09T07:00:18.760Z,92
2018-02-09T07:00:50.739Z,92
2018-02-09T07:01:22.753Z,100
2018-02-09T07:01:54.760Z,100
2018-02-09T07:02:26.738Z,104
2018-02-09T07:02:58.729Z,108
2018-02-09T07:03:30.709Z,116
2018-02-09T07:04:02.739Z,124
2018-02-09T07:04:34.695Z,128
2018-02-09T07:05:06.741Z,132
2018-02-09T07:05:38.943Z,136
2018-02-09T07:06:10.988Z,140
2018-02-09T07:06:43.049Z,144
2018-02-09T07:07:15.085Z,148
2018-02-09T07:07:47.113Z,156
2018-02-09T07:08:19.279Z,160
2018-02-09T07:08:51.296Z,164
2018-02-09T07:09:23.307Z,172
2018-02-09T07:09:55.340Z,176
2018-02-09T07:10:27.393Z,184
2018-02-09T07:10:59.439Z,188
2018-02-09T07:11:31.498Z,200
2018-02-09T07:12:03.536Z,204
2018-02-09T07:12:35.541Z,212
2018-02-09T07:13:07.543Z,216
2018-02-09T07:13:39.616Z,224
2018-02-09T07:14:11.706Z,232
2018-02-09T07:14:43.717Z,240
2018-02-09T07:15:15.745Z,248
2018-02-09T07:15:47.714Z,256
2018-02-09T07:16:19.735Z,260
2018-02-09T07:16:51.749Z,264
2018-02-09T07:17:23.853Z,268
2018-02-09T07:17:55.885Z,272
2018-02-09T07:18:27.865Z,276
2018-02-09T07:19:00.039Z,280
2018-02-09T07:19:32.110Z,280
2018-02-09T07:20:04.165Z,288
2018-02-09T07:20:36.162Z,296
2018-02-09T07:21:08.198Z,300
2018-02-09T07:21:40.267Z,308
2018-02-09T07:22:12.294Z,316
2018-02-09T07:22:44.377Z,324
2018-02-09T07:23:16.437Z,332
2018-02-09T07:23:48.484Z,344
2018-02-09T07:24:20.732Z,348
2018-02-09T07:24:52.755Z,356
2018-02-09T07:25:24.869Z,360
2018-02-09T07:25:56.988Z,364
2018-02-09T07:26:29.034Z,368
2018-02-09T07:27:01.016Z,368
2018-02-09T07:27:33.078Z,372
2018-02-09T07:28:05.112Z,376
2018-02-09T07:28:37.126Z,380
2018-02-09T07:29:09.139Z,380
2018-02-09T07:29:41.795Z,384
2018-02-09T07:30:13.902Z,388
2018-02-09T07:30:45.954Z,392
2018-02-09T07:31:17.990Z,392
2018-02-09T07:31:50.026Z,396
2018-02-09T07:32:22.026Z,404
2018-02-09T07:32:54.147Z,412
2018-02-09T07:33:26.177Z,416
2018-02-09T07:33:58.199Z,424
2018-02-09T07:34:30.200Z,432
2018-02-09T07:35:02.257Z,440
2018-02-09T07:35:34.220Z,444
2018-02-09T07:36:06.245Z,452
2018-02-09T07:36:38.262Z,460
2018-02-09T07:37:10.283Z,464
2018-02-09T07:37:42.324Z,468
2018-02-09T07:38:14.364Z,472
2018-02-09T07:38:46.508Z,476
2018-02-09T07:39:18.544Z,480
2018-02-09T07:39:50.521Z,484
2018-02-09T07:40:22.566Z,488
2018-02-09T07:40:54.563Z,496
2018-02-09T07:41:26.570Z,504
2018-02-09T07:41:58.602Z,512
2018-02-09T07:42:30.572Z,516
2018-02-09T07:43:02.590Z,520
2018-02-09T07:43:34.653Z,528
2018-02-09T07:44:06.647Z,532
2018-02-09T07:44:38.697Z,536
2018-02-09T07:45:12.329Z,540
2018-02-09T07:45:44.373Z,544
2018-02-09T07:46:16.506Z,556
2018-02-09T07:46:48.542Z,560
2018-02-09T07:47:20.590Z,568
2018-02-09T07:47:52.707Z,572
2018-02-09T07:48:25.543Z,580
2018-02-09T07:48:57.564Z,588
2018-02-09T07:49:29.619Z,592
2018-02-09T07:50:02.538Z,596
2018-02-09T07:50:34.679Z,596
2018-02-09T07:51:06.735Z,604
2018-02-09T07:51:38.789Z,608
2018-02-09T07:52:10.813Z,608
2018-02-09T07:52:42.890Z,612
2018-02-09T07:53:14.947Z,604
2018-02-09T07:53:46.946Z,604
2018-02-09T07:54:22.857Z,600
2018-02-09T07:54:54.860Z,604